Time;durP1;ratioP1;P1;durP2;ratioP2;P2;SDS_P1;SDS_P2;PMS_P1;PMS_P2;Temp;Humidity;BMP_temperature;BMP_pressure;BME280_temperature;BME280_humidity;BME280_pressure;Samples;Min_cycle;Max_cycle;Signal;HPM_P1;HPM_P2
2022/10/21 00:00:12;;;;;;;3.85;2.30;;;;;;;3.60;100.00;100561.94;1723116;81;21610;-60
2022/10/21 00:02:41;;;;;;;2.40;2.00;;;;;;;3.56;100.00;100551.11;1731956;79;21074;-59
2022/10/21 00:05:10;;;;;;;2.80;2.25;;;;;;;3.66;100.00;100564.98;1727558;80;21527;-58
2022/10/21 00:07:38;;;;;;;3.17;2.60;;;;;;;3.68;100.00;100559.34;1734633;80;21603;-58
2022/10/21 00:10:06;;;;;;;3.10;2.20;;;;;;;3.70;100.00;100549.35;1727067;80;21878;-58
2022/10/21 00:12:32;;;;;;;4.37;2.47;;;;;;;3.65;100.00;100550.22;1750011;79;21600;-59
2022/10/21 00:15:03;;;;;;;2.70;2.30;;;;;;;3.63;100.00;100561.06;1823540;76;21628;-58
2022/10/21 00:17:30;;;;;;;4.10;2.50;;;;;;;3.58;100.00;100554.98;1745529;79;21561;-59
2022/10/21 00:19:57;;;;;;;7.62;2.83;;;;;;;3.55;100.00;100544.60;1769189;79;21402;-59
2022/10/21 00:22:23;;;;;;;2.87;2.42;;;;;;;3.49;100.00;100537.66;1820831;76;21984;-59
2022/10/21 00:24:50;;;;;;;3.60;2.70;;;;;;;3.44;100.00;100535.05;1806546;77;21567;-58
2022/10/21 00:27:16;;;;;;;7.33;2.90;;;;;;;3.40;100.00;100534.61;1812887;77;21567;-59
2022/10/21 00:29:43;;;;;;;2.47;2.27;;;;;;;3.39;100.00;100536.80;1820611;76;21455;-59
2022/10/21 00:32:10;;;;;;;4.75;2.75;;;;;;;3.38;100.00;100538.09;1797971;77;20924;-59
2022/10/21 00:34:37;;;;;;;2.90;2.60;;;;;;;3.37;100.00;100543.73;1810922;76;21784;-59
2022/10/21 00:37:04;;;;;;;3.22;2.40;;;;;;;3.34;100.00;100550.22;1798291;77;21525;-59
2022/10/21 00:39:32;;;;;;;3.25;2.50;;;;;;;3.32;100.00;100557.14;1802239;77;21091;-59
2022/10/21 00:41:59;;;;;;;3.80;2.87;;;;;;;3.29;100.00;100563.63;1806377;77;21505;-60
2022/10/21 00:44:25;;;;;;;3.67;3.00;;;;;;;3.29;100.00;100569.69;1829456;76;21420;-59
2022/10/21 00:47:03;;;;;;;4.28;3.00;;;;;;;3.28;100.00;100561.47;1816676;75;21916;-59
2022/10/21 00:49:50;;;;;;;6.17;3.10;;;;;;;3.26;100.00;100563.64;1780879;77;26979;-59
2022/10/21 00:52:20;;;;;;;3.15;2.80;;;;;;;3.25;100.00;100564.05;1781872;76;21135;-59
2022/10/21 00:54:49;;;;;;;6.50;3.22;;;;;;;3.23;100.00;100563.19;1832046;77;20960;-59
2022/10/21 00:57:16;;;;;;;3.08;2.70;;;;;;;3.22;100.00;100564.48;1793374;76;21590;-59
2022/10/21 00:59:47;;;;;;;3.15;2.75;;;;;;;3.19;100.00;100569.69;1803140;76;21721;-59
2022/10/21 01:02:15;;;;;;;3.02;2.72;;;;;;;3.16;100.00;100573.56;1792025;77;21173;-59
2022/10/21 01:04:43;;;;;;;3.55;2.80;;;;;;;3.13;100.00;100573.14;1818911;76;21555;-59
2022/10/21 01:07:10;;;;;;;3.25;2.70;;;;;;;3.11;100.00;100574.43;1820524;76;21398;-59
2022/10/21 01:09:37;;;;;;;3.12;2.83;;;;;;;3.02;100.00;100567.05;1825831;76;21526;-59
2022/10/21 01:12:04;;;;;;;3.05;2.50;;;;;;;3.02;100.00;100567.05;1812832;76;21779;-59
2022/10/21 01:14:47;;;;;;;;;;;;;;;2.97;100.00;100564.86;1827418;76;21493;-59
2022/10/21 01:17:44;;;;;;;5.90;2.42;;;;;;;2.84;100.00;100562.64;1811766;77;20434;-59
2022/10/21 01:20:39;;;;;;;2.52;2.33;;;;;;;2.80;100.00;100559.61;1824461;76;21519;-59
2022/10/21 01:23:53;;;;;;;4.58;2.80;;;;;;;2.78;100.00;100556.14;1811824;77;21490;-59
2022/10/21 01:26:58;;;;;;;2.27;2.08;;;;;;;2.77;100.00;100554.39;1828742;76;21761;-60
2022/10/21 01:29:36;;;;;;;2.62;2.12;;;;;;;2.72;100.00;100559.14;1765084;78;21568;-59
2022/10/21 01:32:42;;;;;;;5.08;2.62;;;;;;;2.71;100.00;100556.53;1813770;76;21656;-59
2022/10/21 01:35:20;;;;;;;3.05;2.22;;;;;;;2.70;100.00;100558.27;1760919;79;21522;-59
2022/10/21 01:38:04;;;;;;;3.77;2.50;;;;;;;2.66;100.00;100557.83;1782131;77;21402;-58
2022/10/21 01:40:54;;;;;;;4.87;2.55;;;;;;;2.66;100.00;100561.72;1797016;76;21597;-58
2022/10/21 01:43:39;;;;;;;4.35;2.80;;;;;;;2.65;100.00;100577.30;1795245;77;21067;-59
2022/10/21 01:46:20;;;;;;;3.87;2.40;;;;;;;2.61;100.00;100586.80;1813059;76;21505;-58
2022/10/21 01:48:53;;;;;;;3.65;2.45;;;;;;;2.56;100.00;100585.89;1825483;76;21486;-58
2022/10/21 01:51:20;;;;;;;2.52;2.10;;;;;;;2.60;100.00;100590.67;1802665;77;21498;-58
2022/10/21 01:53:55;;;;;;;3.00;2.72;;;;;;;2.64;100.00;100582.06;1805867;76;22113;-58
2022/10/21 01:56:22;;;;;;;3.52;2.75;;;;;;;2.63;100.00;100578.58;1793537;77;21432;-58
2022/10/21 01:58:48;;;;;;;4.20;2.70;;;;;;;2.64;100.00;100587.26;1784826;77;21429;-58
2022/10/21 02:01:15;;;;;;;4.47;2.72;;;;;;;2.63;100.00;100590.27;1785801;77;21455;-58
2022/10/21 02:03:45;;;;;;;3.20;2.75;;;;;;;2.60;100.00;100585.08;1812987;76;21034;-58
2022/10/21 02:06:12;;;;;;;2.92;2.35;;;;;;;2.59;100.00;100591.55;1814483;77;21773;-58
2022/10/21 02:08:41;;;;;;;2.45;2.25;;;;;;;2.56;100.00;100589.79;1822816;76;21656;-58
2022/10/21 02:11:08;;;;;;;;;;;;;;;2.52;100.00;100588.94;1795256;78;21613;-58
2022/10/21 02:13:41;;;;;;;4.55;1.82;;;;;;;2.46;100.00;100590.17;1820541;77;20481;-58
2022/10/21 02:16:09;;;;;;;2.20;1.75;;;;;;;2.53;100.00;100593.25;1833420;77;21461;-59
2022/10/21 02:18:37;;;;;;;2.70;2.27;;;;;;;2.56;100.00;100601.47;1789778;76;21491;-58
2022/10/21 02:21:07;;;;;;;2.30;2.10;;;;;;;2.59;100.00;100604.09;1810099;76;21486;-59
2022/10/21 02:23:54;;;;;;;3.00;2.50;;;;;;;2.57;100.00;100598.47;1796068;77;21587;-58
2022/10/21 02:26:22;;;;;;;4.58;2.30;;;;;;;2.57;100.00;100594.58;1793207;77;21606;-59
2022/10/21 02:28:48;;;;;;;2.90;2.37;;;;;;;2.53;100.00;100594.98;1816440;76;21673;-58
2022/10/21 02:31:35;;;;;;;2.42;1.95;;;;;;;2.50;100.00;100597.11;1813829;76;21873;-59
2022/10/21 02:34:13;;;;;;;3.00;2.27;;;;;;;2.44;100.00;100600.13;1806709;77;21525;-59
2022/10/21 02:36:53;;;;;;;4.33;2.30;;;;;;;2.44;100.00;100600.13;1809704;77;28748;-59
2022/10/21 02:39:34;;;;;;;3.12;2.42;;;;;;;2.42;100.00;100594.92;1815192;76;21532;-59
2022/10/21 02:42:02;;;;;;;4.62;2.40;;;;;;;2.40;100.00;100597.08;1804378;77;21038;-59
2022/10/21 02:44:30;;;;;;;3.25;2.67;;;;;;;2.37;100.00;100593.16;1804077;77;21747;-59
2022/10/21 02:46:57;;;;;;;3.15;2.60;;;;;;;2.33;100.00;100593.13;1792893;76;21575;-59
2022/10/21 02:49:23;;;;;;;3.58;2.80;;;;;;;2.33;100.00;100597.02;1805411;77;21535;-59
2022/10/21 02:51:49;;;;;;;3.22;2.77;;;;;;;2.31;100.00;100596.14;1806406;76;21429;-59
2022/10/21 02:54:16;;;;;;;3.20;2.52;;;;;;;2.30;100.00;100606.54;1821207;77;20994;-59
2022/10/21 02:56:44;;;;;;;2.72;2.50;;;;;;;2.28;100.00;100607.83;1801094;77;21449;-59
2022/10/21 02:59:10;;;;;;;2.40;2.10;;;;;;;2.26;100.00;100610.84;1810935;77;21495;-59
2022/10/21 03:01:37;;;;;;;2.20;2.00;;;;;;;2.27;100.00;100608.67;1772132;77;21487;-59
2022/10/21 03:04:04;;;;;;;4.33;2.60;;;;;;;2.32;100.00;100611.31;1815500;77;21566;-59
2022/10/21 03:06:31;;;;;;;;;;;;;;;2.34;100.00;100603.96;1778967;77;21629;-59
2022/10/21 03:08:57;;;;;;;2.72;2.17;;;;;;;2.24;100.00;100605.19;1794099;76;21725;-59
2022/10/21 03:11:24;;;;;;;2.42;2.22;;;;;;;2.21;100.00;100599.55;1818080;75;21534;-59
2022/10/21 03:13:51;;;;;;;2.63;2.43;;;;;;;2.19;100.00;100607.77;1814516;77;21069;-59
2022/10/21 03:16:17;;;;;;;2.90;2.55;;;;;;;2.16;100.00;100609.02;1798607;77;21489;-60
2022/10/21 03:18:44;;;;;;;2.97;2.77;;;;;;;2.12;100.00;100609.87;1791100;77;21684;-59
2022/10/21 03:21:11;;;;;;;3.58;1.95;;;;;;;2.10;100.00;100614.18;1788971;76;21623;-59
2022/10/21 03:23:39;;;;;;;3.58;1.90;;;;;;;2.09;100.00;100617.21;1795335;77;21590;-60
2022/10/21 03:26:06;;;;;;;3.57;2.40;;;;;;;1.95;100.00;100598.07;1798565;77;21049;-59
2022/10/21 03:28:33;;;;;;;5.42;2.25;;;;;;;2.11;100.00;100623.28;1820330;76;21676;-59
2022/10/21 03:30:59;;;;;;;2.80;2.55;;;;;;;2.13;100.00;100616.81;1809310;76;21099;-59
2022/10/21 03:33:26;;;;;;;5.42;2.47;;;;;;;2.18;100.00;100616.83;1819396;77;21480;-59
2022/10/21 03:35:53;;;;;;;3.97;3.20;;;;;;;2.21;100.00;100615.56;1813587;77;21488;-59
2022/10/21 03:38:19;;;;;;;3.65;3.35;;;;;;;2.15;100.00;100618.98;1810078;76;21457;-59
2022/10/21 03:40:46;;;;;;;3.52;3.00;;;;;;;2.11;100.00;100612.90;1800509;76;20932;-59
2022/10/21 03:43:13;;;;;;;3.98;3.12;;;;;;;2.10;100.00;100616.34;1826191;76;21443;-59
2022/10/21 03:45:40;;;;;;;3.87;2.45;;;;;;;2.08;100.00;100612.87;1826055;77;21884;-59
2022/10/21 03:48:06;;;;;;;3.37;2.92;;;;;;;2.06;100.00;100616.31;1824447;76;21518;-58
2022/10/21 03:50:33;;;;;;;3.73;2.77;;;;;;;2.05;100.00;100609.38;1797765;77;21154;-59
2022/10/21 03:53:00;;;;;;;2.90;2.33;;;;;;;2.03;100.00;100613.25;1809507;76;21027;-59
2022/10/21 03:55:27;;;;;;;2.58;2.37;;;;;;;1.99;100.00;100607.61;1823799;77;21538;-58
2022/10/21 03:57:54;;;;;;;4.12;2.05;;;;;;;1.95;100.00;100611.03;1803930;76;21522;-59
2022/10/21 04:00:20;;;;;;;2.35;2.15;;;;;;;1.98;100.00;100608.88;1781185;77;21425;-59
2022/10/21 04:02:48;;;;;;;2.47;2.00;;;;;;;2.00;100.00;100609.77;1823694;76;21426;-59
2022/10/21 04:05:14;;;;;;;2.00;1.80;;;;;;;2.00;100.00;100614.55;1811754;76;21534;-59
2022/10/21 04:07:42;;;;;;;2.17;1.92;;;;;;;2.05;100.00;100608.08;1800330;76;21416;-59
2022/10/21 04:10:10;;;;;;;2.27;1.98;;;;;;;2.09;100.00;100612.02;1791083;77;22114;-59
2022/10/21 04:12:36;;;;;;;2.20;2.00;;;;;;;2.10;100.00;100618.07;1747814;79;21370;-59
2022/10/21 04:15:04;;;;;;;5.28;2.00;;;;;;;2.13;100.00;100615.07;1794919;78;21035;-59
2022/10/21 04:17:30;;;;;;;3.80;1.98;;;;;;;2.13;100.00;100616.37;1780774;77;28470;-59
2022/10/21 04:19:57;;;;;;;2.27;1.90;;;;;;;2.13;100.00;100609.02;1811520;76;21394;-58
2022/10/21 04:22:25;;;;;;;3.27;2.58;;;;;;;2.14;100.00;100610.74;1814649;76;21673;-59
2022/10/21 04:24:52;;;;;;;2.70;2.47;;;;;;;2.12;100.00;100611.16;1797112;77;21089;-59
2022/10/21 04:27:18;;;;;;;2.15;1.95;;;;;;;2.09;100.00;100613.73;1788680;77;21466;-59
2022/10/21 04:29:45;;;;;;;3.58;2.02;;;;;;;2.06;100.00;100611.98;1801843;77;21444;-59
2022/10/21 04:32:11;;;;;;;2.60;2.40;;;;;;;2.04;100.00;100615.44;1820917;77;21522;-59
2022/10/21 04:34:37;;;;;;;6.85;2.37;;;;;;;2.03;100.00;100617.14;1755499;79;21953;-59
2022/10/21 04:37:04;;;;;;;2.55;2.35;;;;;;;1.99;100.00;100615.39;1797213;77;21000;-59
2022/10/21 04:39:31;;;;;;;3.35;2.37;;;;;;;1.97;100.00;100615.80;1812339;76;21575;-59
2022/10/21 04:41:57;;;;;;;3.52;2.40;;;;;;;1.94;100.00;100619.26;1785474;77;21582;-59
2022/10/21 04:44:24;;;;;;;6.03;2.20;;;;;;;1.93;100.00;100623.98;1810956;76;20952;-59
2022/10/21 04:46:52;;;;;;;4.10;2.50;;;;;;;1.95;100.00;100634.38;1800666;77;21801;-59
2022/10/21 04:49:19;;;;;;;5.87;2.50;;;;;;;1.93;100.00;100627.88;1735756;79;21471;-59
2022/10/21 04:51:45;;;;;;;3.65;2.92;;;;;;;1.44;100.00;100541.91;1811562;76;21472;-59
2022/10/21 04:54:12;;;;;;;2.67;2.47;;;;;;;1.85;100.00;100625.66;1762980;79;22583;-59
2022/10/21 04:56:40;;;;;;;2.65;2.45;;;;;;;1.84;100.00;100631.69;1811752;76;21602;-59
2022/10/21 04:59:07;;;;;;;2.83;2.55;;;;;;;1.84;100.00;100633.42;1814868;76;22106;-59
2022/10/21 05:01:33;;;;;;;3.08;2.33;;;;;;;1.87;100.00;100629.57;1794777;77;20995;-59
2022/10/21 05:04:00;;;;;;;2.92;2.55;;;;;;;1.90;100.00;100634.77;1808966;76;21418;-59
2022/10/21 05:06:26;;;;;;;3.65;2.50;;;;;;;1.91;100.00;100650.78;1796435;76;21006;-59
2022/10/21 05:08:53;;;;;;;3.83;2.85;;;;;;;1.88;100.00;100641.66;1741166;80;21494;-59
2022/10/21 05:11:21;;;;;;;;;;;;;;;1.91;100.00;100643.00;1760616;79;21781;-59
2022/10/21 05:13:48;;;;;;;;;;;;;;;1.88;100.00;100637.77;1753699;79;20442;-59
2022/10/21 05:16:14;;;;;;;2.85;2.17;;;;;;;1.88;100.00;100640.37;1816483;76;20425;-59
2022/10/21 05:18:41;;;;;;;3.47;2.83;;;;;;;1.97;100.00;100631.80;1819693;77;21562;-58
2022/10/21 05:21:10;;;;;;;4.30;2.77;;;;;;;2.03;100.00;100634.44;1817332;77;21569;-59
2022/10/21 05:23:37;;;;;;;3.72;2.75;;;;;;;2.10;100.00;100642.72;1797944;77;21883;-59
2022/10/21 05:26:04;;;;;;;3.90;2.47;;;;;;;2.16;100.00;100644.48;1805897;77;21531;-59
2022/10/21 05:28:31;;;;;;;6.58;3.37;;;;;;;2.24;100.00;100643.70;1798621;76;21040;-58
2022/10/21 05:30:58;;;;;;;5.53;2.62;;;;;;;2.29;100.00;100638.09;1808923;76;21496;-57
2022/10/21 05:33:24;;;;;;;2.90;2.55;;;;;;;2.39;100.00;100641.61;1816653;76;21661;-58
2022/10/21 05:35:56;;;;;;;4.03;2.92;;;;;;;2.49;100.00;100640.83;1787340;77;22010;-58
2022/10/21 05:38:23;;;;;;;4.05;3.00;;;;;;;2.55;100.00;100643.03;1792241;77;21562;-58
2022/10/21 05:40:50;;;;;;;4.55;3.12;;;;;;;2.58;100.00;100640.03;1812325;76;21437;-58
2022/10/21 05:43:16;;;;;;;4.87;3.15;;;;;;;2.58;100.00;100646.92;1799535;77;21522;-59
2022/10/21 05:45:43;;;;;;;2.70;2.47;;;;;;;2.67;100.00;100636.16;1782428;77;21496;-58
2022/10/21 05:48:10;;;;;;;3.72;2.87;;;;;;;2.67;100.00;100636.16;1827341;75;21970;-58
2022/10/21 05:50:37;;;;;;;4.20;2.93;;;;;;;2.76;100.00;100634.48;1799477;76;21689;-59
2022/10/21 05:53:03;;;;;;;8.63;3.50;;;;;;;2.83;100.00;100637.12;1808872;76;21517;-59
2022/10/21 05:55:30;;;;;;;6.10;4.15;;;;;;;2.97;100.00;100630.67;1804148;76;21558;-59
2022/10/21 05:57:56;;;;;;;6.20;4.08;;;;;;;3.06;100.00;100638.50;1734428;79;21445;-60
2022/10/21 06:00:24;;;;;;;5.05;3.58;;;;;;;3.16;100.00;100636.80;1796776;77;22037;-59
2022/10/21 06:02:52;;;;;;;4.30;3.70;;;;;;;3.21;100.00;100640.29;1799585;76;21068;-60
2022/10/21 06:05:19;;;;;;;5.35;3.45;;;;;;;3.30;100.00;100644.66;1756066;79;21069;-60
2022/10/21 06:07:47;;;;;;;4.10;3.35;;;;;;;3.42;100.00;100649.02;1779321;78;21616;-60
2022/10/21 06:10:15;;;;;;;3.67;3.05;;;;;;;3.50;100.00;100646.88;1816815;77;21550;-60
2022/10/21 06:12:42;;;;;;;5.37;3.55;;;;;;;3.61;100.00;100647.32;1815289;76;21840;-60
2022/10/21 06:15:10;;;;;;;6.17;3.42;;;;;;;3.72;100.00;100646.05;1784945;77;21714;-63
2022/10/21 06:17:37;;;;;;;4.25;3.20;;;;;;;3.83;100.00;100652.12;1790083;76;21598;-60
2022/10/21 06:20:06;;;;;;;4.35;3.20;;;;;;;3.98;100.00;100655.17;1801739;77;21531;-60
2022/10/21 06:22:32;;;;;;;3.42;3.12;;;;;;;4.12;100.00;100650.81;1786505;77;21499;-61
2022/10/21 06:25:00;;;;;;;4.35;3.55;;;;;;;4.25;100.00;100647.34;1814080;76;21467;-60
2022/10/21 06:27:27;;;;;;;3.10;2.80;;;;;;;4.39;100.00;100647.34;1799867;76;21430;-59
2022/10/21 06:29:54;;;;;;;4.90;3.62;;;;;;;4.56;100.00;100645.11;1720789;80;21553;-59
2022/10/21 06:32:21;;;;;;;5.03;3.12;;;;;;;4.69;100.00;100645.55;1749260;79;21534;-60
2022/10/21 06:34:47;;;;;;;4.35;3.87;;;;;;;4.79;100.00;100660.27;1692050;80;21405;-60
2022/10/21 06:37:14;;;;;;;4.22;3.40;;;;;;;4.91;100.00;100656.75;1755048;79;22123;-59
2022/10/21 06:39:40;;;;;;;4.40;3.10;;;;;;;5.03;100.00;100655.41;1759530;79;21578;-59
2022/10/21 06:42:07;;;;;;;4.10;2.98;;;;;;;5.10;100.00;100653.63;1769869;79;21468;-60
2022/10/21 06:44:41;;;;;;;3.05;2.65;;;;;;;5.13;100.00;100654.08;1758588;79;21541;-60
2022/10/21 06:47:08;;;;;;;3.45;2.90;;;;;;;5.20;100.00;100662.31;1760410;79;21509;-59
2022/10/21 06:49:35;;;;;;;2.85;2.33;;;;;;;5.27;100.00;100652.25;1755885;79;25227;-58
2022/10/21 06:52:02;;;;;;;4.55;2.60;;;;;;;5.36;100.00;100661.78;1762013;78;21534;-59
2022/10/21 06:54:29;;;;;;;4.45;2.95;;;;;;;5.39;100.00;100654.81;1765109;78;21505;-59
2022/10/21 06:56:55;;;;;;;3.67;2.87;;;;;;;5.40;100.00;100652.61;1741361;79;21479;-58
2022/10/21 06:59:22;;;;;;;3.12;2.70;;;;;;;5.39;100.00;100653.51;1773834;78;21558;-58
2022/10/21 07:01:48;;;;;;;3.15;2.70;;;;;;;5.45;100.00;100653.47;1789672;77;21850;-58
2022/10/21 07:04:15;;;;;;;3.20;2.42;;;;;;;5.54;100.00;100648.64;1809009;76;21537;-58
2022/10/21 07:06:42;;;;;;;4.20;3.80;;;;;;;5.65;100.00;100652.05;1813961;76;22219;-58
2022/10/21 07:09:09;;;;;;;5.20;3.93;;;;;;;5.76;100.00;100652.41;1801373;77;21724;-58
2022/10/21 07:11:36;;;;;;;5.05;3.80;;;;;;;5.80;100.00;100660.22;1804849;76;21537;-58
2022/10/21 07:14:03;;;;;;;3.47;3.17;;;;;;;5.89;100.00;100657.95;1795108;76;21854;-59
2022/10/21 07:16:32;;;;;;;4.07;3.07;;;;;;;6.03;100.00;100653.99;1819594;76;21428;-58
2022/10/21 07:18:58;;;;;;;4.65;3.20;;;;;;;6.14;100.00;100660.41;1794114;77;21519;-58
2022/10/21 07:21:28;;;;;;;3.40;2.98;;;;;;;6.26;100.00;100664.23;1780188;77;21480;-58
2022/10/21 07:23:55;;;;;;;6.97;3.40;;;;;;;6.36;100.00;100665.02;1783932;76;21639;-58
2022/10/21 07:26:23;;;;;;;4.80;3.75;;;;;;;6.53;100.00;100659.62;1813619;76;21792;-58
2022/10/21 07:28:49;;;;;;;3.90;3.20;;;;;;;6.69;100.00;100657.29;1781869;77;21441;-58
2022/10/21 07:31:18;;;;;;;4.37;3.22;;;;;;;6.85;100.00;100661.89;1822649;76;21506;-58
2022/10/21 07:33:45;;;;;;;5.05;3.60;;;;;;;6.96;100.00;100661.33;1812764;76;21554;-58
2022/10/21 07:36:19;;;;;;;3.77;2.93;;;;;;;7.08;100.00;100656.84;1788967;76;21567;-59
2022/10/21 07:38:47;;;;;;;3.70;2.72;;;;;;;7.16;100.00;100657.17;1811412;76;21855;-59
2022/10/21 07:41:23;;;;;;;4.50;3.20;;;;;;;7.27;100.00;100657.47;1823867;76;21558;-58
2022/10/21 07:43:50;;;;;;;8.05;3.00;;;;;;;7.30;100.00;100650.45;1793619;76;21600;-58
2022/10/21 07:46:18;;;;;;;4.87;3.65;;;;;;;7.34;100.00;100654.75;1799923;76;21635;-60
2022/10/21 07:48:44;;;;;;;5.03;3.87;;;;;;;7.41;100.00;100660.32;1801493;77;21585;-60
2022/10/21 07:51:13;;;;;;;5.10;3.95;;;;;;;7.46;100.00;100658.08;1814007;76;21828;-61
2022/10/21 07:53:40;;;;;;;9.55;3.80;;;;;;;7.41;100.00;100662.94;1794002;77;21541;-60
2022/10/21 07:56:12;;;;;;;4.42;3.25;;;;;;;7.45;100.00;100658.98;1797752;76;20980;-60
2022/10/21 07:58:39;;;;;;;4.15;3.42;;;;;;;7.54;100.00;100665.41;1803721;75;21523;-60
2022/10/21 08:01:06;;;;;;;4.03;3.00;;;;;;;7.66;100.00;100657.36;1819166;76;21488;-60
2022/10/21 08:03:34;;;;;;;4.47;3.52;;;;;;;7.85;100.00;100651.39;1829113;76;21746;-59
2022/10/21 08:06:02;;;;;;;3.53;3.23;;;;;;;8.02;100.00;100649.82;1804784;75;21573;-60
2022/10/21 08:08:29;;;;;;;;;;;;;;;8.03;100.00;100650.71;1818072;76;21532;-60
2022/10/21 08:10:56;;;;;;;4.12;3.55;;;;;;;8.01;100.00;100646.80;1786795;77;20407;-59
2022/10/21 08:13:22;;;;;;;5.00;3.10;;;;;;;8.04;100.00;100648.04;1810199;76;21416;-59
2022/10/21 08:15:52;;;;;;;4.03;3.33;;;;;;;8.07;100.00;100657.63;1810911;77;21700;-60
2022/10/21 08:18:20;;;;;;;4.70;3.95;;;;;;;8.11;100.00;100657.53;1799250;77;21401;-60
2022/10/21 08:20:48;;;;;;;6.72;3.70;;;;;;;8.24;100.00;100656.89;1813875;76;21534;-59
2022/10/21 08:23:17;;;;;;;3.33;2.90;;;;;;;8.33;100.00;100654.56;1766054;79;21638;-59
2022/10/21 08:25:53;;;;;;;5.30;3.45;;;;;;;8.44;100.00;100654.39;1805667;77;21613;-60
2022/10/21 08:28:20;;;;;;;3.35;2.85;;;;;;;8.49;100.00;100646.00;1792170;77;21754;-61
2022/10/21 08:30:46;;;;;;;3.85;2.80;;;;;;;8.51;100.00;100652.08;1813264;76;21487;-60
2022/10/21 08:33:13;;;;;;;4.12;3.02;;;;;;;8.50;100.00;100648.60;1810369;77;21447;-60
2022/10/21 08:38:11;;;;;;;5.25;3.22;;;;;;;8.31;100.00;100644.11;1776785;78;23204;-59
2022/10/21 08:40:45;;;;;;;3.30;2.37;;;;;;;8.49;100.00;100648.62;1723521;80;21608;-60
2022/10/21 08:43:28;;;;;;;3.12;2.20;;;;;;;8.57;100.00;100644.13;1736586;80;21811;-59
2022/10/21 08:46:09;;;;;;;3.52;1.90;;;;;;;8.67;100.00;100646.13;1729824;81;21516;-59
2022/10/21 08:48:56;;;;;;;3.20;2.50;;;;;;;8.80;100.00;100644.10;1710978;81;21033;-59
2022/10/21 08:51:30;;;;;;;2.75;2.20;;;;;;;8.84;100.00;100642.72;1739527;79;21495;-60
2022/10/21 08:54:02;;;;;;;3.27;2.42;;;;;;;8.96;100.00;100640.29;1745476;80;21508;-59
2022/10/21 08:56:30;;;;;;;3.47;2.25;;;;;;;9.10;100.00;100640.03;1702835;83;21441;-60
2022/10/21 08:58:57;;;;;;;4.42;3.17;;;;;;;9.16;100.00;100634.64;1700558;83;21527;-60
2022/10/21 09:01:45;;;;;;;3.58;2.67;;;;;;;9.16;100.00;100641.20;1712681;81;21608;-61
2022/10/21 09:04:28;;;;;;;3.62;3.20;;;;;;;9.19;100.00;100646.36;1682261;83;21517;-60
2022/10/21 09:07:35;;;;;;;5.25;3.75;;;;;;;9.24;100.00;100643.66;1694263;83;21511;-60
2022/10/21 09:10:15;;;;;;;2.90;2.58;;;;;;;9.30;100.00;100645.69;1692665;83;21455;-60
2022/10/21 09:13:07;;;;;;;2.95;2.22;;;;;;;9.41;100.00;100646.78;1682393;81;21481;-61
2022/10/21 09:15:45;;;;;;;2.08;1.87;;;;;;;9.51;100.00;100638.24;1685401;83;21552;-61
2022/10/21 09:18:38;;;;;;;5.42;2.30;;;;;;;9.58;100.00;100641.15;1686225;83;21539;-61
2022/10/21 09:21:29;;;;;;;3.33;2.65;;;;;;;9.62;100.00;100640.17;1693063;82;21072;-59
2022/10/21 09:24:17;;;;;;;2.25;1.90;;;;;;;9.72;100.00;100633.83;1662198;82;21852;-59
2022/10/21 09:26:47;;;;;;;4.78;1.95;;;;;;;9.80;100.00;100633.64;1694654;83;21525;-58
2022/10/21 09:29:28;;;;;;;2.65;1.90;;;;;;;9.87;100.00;100627.34;1683947;82;21551;-61
2022/10/21 09:32:05;;;;;;;2.92;1.80;;;;;;;9.99;100.00;100631.89;1694878;82;21056;-60
2022/10/21 09:35:07;;;;;;;2.45;2.25;;;;;;;10.07;100.00;100632.09;1680880;82;21596;-61
2022/10/21 09:37:43;;;;;;;3.50;2.10;;;;;;;10.18;100.00;100638.41;1675080;83;21831;-62
2022/10/21 09:40:22;;;;;;;2.25;1.85;;;;;;;10.14;98.21;100640.70;1670452;83;21684;-63
2022/10/21 09:42:51;;;;;;;1.85;1.72;;;;;;;10.09;98.97;100633.37;1683095;83;21472;-61
2022/10/21 09:45:38;;;;;;;2.40;2.20;;;;;;;10.00;97.74;100639.74;1686015;83;21055;-62
2022/10/21 09:48:38;;;;;;;3.23;2.40;;;;;;;10.01;99.03;100628.77;1674346;84;21515;-59
2022/10/21 09:51:21;;;;;;;2.92;2.00;;;;;;;10.05;98.63;100630.41;1675225;83;21562;-59
2022/10/21 09:54:11;;;;;;;4.00;2.37;;;;;;;10.06;98.24;100629.53;1673522;83;21087;-59
2022/10/21 09:56:44;;;;;;;2.50;2.20;;;;;;;10.12;97.57;100625.42;1577090;89;21537;-60
2022/10/21 09:59:17;;;;;;;2.75;2.42;;;;;;;10.15;96.74;100631.89;1588121;88;21490;-60
2022/10/21 10:01:44;;;;;;;2.08;1.77;;;;;;;10.15;96.81;100630.58;1616512;85;21624;-60
2022/10/21 10:04:30;;;;;;;2.30;2.02;;;;;;;10.16;94.79;100630.16;1677039;83;22433;-60
2022/10/21 10:07:04;;;;;;;1.60;1.50;;;;;;;10.13;94.73;100629.76;1703898;82;21088;-59
2022/10/21 10:09:32;;;;;;;2.25;1.75;;;;;;;10.07;94.48;100629.47;1672538;82;21455;-59
2022/10/21 10:12:12;;;;;;;3.00;1.85;;;;;;;10.12;95.58;100626.28;1730961;80;21479;-59
2022/10/21 10:14:41;;;;;;;2.77;1.90;;;;;;;10.17;94.40;100623.98;1730214;81;21601;-60
2022/10/21 10:17:32;;;;;;;2.50;1.75;;;;;;;10.20;93.58;100619.97;1699062;83;21462;-61
2022/10/21 10:20:16;;;;;;;1.50;1.30;;;;;;;10.22;94.53;100608.97;1694933;82;21588;-62
2022/10/21 10:22:57;;;;;;;2.47;1.57;;;;;;;10.24;93.43;100608.47;1727829;80;21662;-61
2022/10/21 10:25:27;;;;;;;1.60;1.50;;;;;;;10.22;92.12;100601.94;1676718;83;21414;-61
2022/10/21 10:28:11;;;;;;;2.90;1.30;;;;;;;10.21;92.73;100604.17;1735302;80;21494;-61
2022/10/21 10:30:50;;;;;;;1.60;1.47;;;;;;;10.13;90.51;100602.17;1726983;80;21802;-62
2022/10/21 10:33:20;;;;;;;1.10;1.00;;;;;;;10.03;88.50;100604.17;1699190;82;21655;-61
2022/10/21 10:35:58;;;;;;;1.72;1.17;;;;;;;10.07;88.78;100600.56;1692625;83;21521;-60
2022/10/21 10:38:35;;;;;;;1.32;1.00;;;;;;;10.13;90.02;100599.54;1688744;82;21450;-64
2022/10/21 10:41:11;;;;;;;1.47;1.10;;;;;;;10.22;89.32;100594.51;1730570;80;21045;-63
2022/10/21 10:43:45;;;;;;;3.00;1.32;;;;;;;10.26;87.81;100593.52;1735426;80;21703;-65
2022/10/21 10:46:30;;;;;;;1.20;1.07;;;;;;;10.26;88.95;100590.89;1727616;80;21395;-63
2022/10/21 10:49:15;;;;;;;1.80;1.10;;;;;;;10.14;87.36;100591.62;1703315;81;21537;-63
2022/10/21 10:51:44;;;;;;;1.15;1.07;;;;;;;10.16;87.30;100590.27;1689076;83;21523;-60
2022/10/21 10:54:18;;;;;;;1.37;1.00;;;;;;;10.22;87.43;100587.94;1717650;82;21479;-61
2022/10/21 10:57:05;;;;;;;1.30;1.20;;;;;;;10.24;87.56;100588.30;1722506;80;21845;-60
2022/10/21 10:59:56;;;;;;;1.95;1.25;;;;;;;10.28;87.61;100583.39;1737659;80;21056;-60
2022/10/21 11:02:45;;;;;;;2.45;1.30;;;;;;;10.26;86.33;100576.44;1730349;80;21537;-61
2022/10/21 11:05:41;;;;;;;2.22;1.42;;;;;;;10.23;86.76;100569.97;1738623;79;21518;-60
2022/10/21 15:25:36;;;;;;;9.85;6.00;;;;;;;5.32;100.00;100490.11;1847971;75;26792;-60
2022/10/21 15:28:11;;;;;;;9.70;5.95;;;;;;;5.45;100.00;100483.92;1810735;77;20944;-61
2022/10/21 15:30:37;;;;;;;9.40;5.97;;;;;;;5.52;100.00;100486.05;1812938;75;21851;-61
2022/10/21 15:33:50;;;;;;;8.00;5.40;;;;;;;5.55;100.00;100487.75;1797615;77;21617;-60
2022/10/21 15:36:18;;;;;;;6.80;4.60;;;;;;;5.55;100.00;100487.75;1809131;76;21614;-60
2022/10/21 15:38:47;;;;;;;7.17;4.67;;;;;;;5.52;100.00;100495.19;1811034;76;21577;-60
2022/10/21 15:41:20;;;;;;;9.35;4.85;;;;;;;5.52;100.00;100495.59;1810038;77;21517;-61
2022/10/21 15:44:01;;;;;;;7.47;4.67;;;;;;;5.54;100.00;100507.77;1804397;76;21813;-60
2022/10/21 15:46:29;;;;;;;5.83;4.60;;;;;;;5.58;100.00;100504.25;1760184;77;21085;-61
2022/10/21 15:48:56;;;;;;;6.72;4.55;;;;;;;5.57;100.00;100499.90;1810982;76;21519;-60
2022/10/21 15:51:23;;;;;;;6.22;4.42;;;;;;;5.55;100.00;100504.27;1807196;77;21467;-60
2022/10/21 15:57:23;;;;;;;5.50;4.42;;;;;;;5.55;100.00;100508.63;1796187;76;21062;-61
2022/10/21 15:59:49;;;;;;;6.97;4.72;;;;;;;5.50;100.00;100511.29;1819165;77;21420;-61
2022/10/21 16:02:16;;;;;;;6.70;4.30;;;;;;;5.48;100.00;100509.10;1811587;77;21503;-61
2022/10/21 16:04:42;;;;;;;5.60;4.40;;;;;;;5.46;100.00;100509.14;1811304;76;21523;-60
2022/10/21 16:07:19;;;;;;;6.78;5.25;;;;;;;5.43;100.00;100509.16;1812294;76;21511;-61
2022/10/21 16:09:46;;;;;;;8.20;5.27;;;;;;;5.43;100.00;100506.55;1794953;77;21823;-60